West Truckee, California
Current Conditions -  °F | °C
As of 11:50 AM on Friday 28 Nov 2014 (Local Time) from KTRK Reporting Station
Broken Clouds Broken Clouds  
Wind Chill: 54°   Ceiling: 13000
Heat Index: 54°   Visibility: 10mi
Dew Point: -6°   Wind: 20mph
Humidity: 9%   Direction: 220°SW
Pressure: 30.05"   Gusts: 30mph
Location:  39.337°N, 120.288°W
Report Text: KTRK 281950Z 22017G26KT 10SM SCT100 BKN130 12/M21 A3005 RMK NOSPECI
Loading
Personal Weather Stations






























Interactive Weather Map New forecast layout! Learn more

10-Day Weather Forecast

Advertisements
Track Severe Weather on mobile